createdAt,value
2019-04-11T00:00:45.926Z,71.69
2019-04-11T00:03:15.347Z,72.50
2019-04-11T00:05:43.966Z,72.18
2019-04-11T00:08:12.681Z,72.26
2019-04-11T00:10:42.973Z,71.93
2019-04-11T00:13:18.927Z,71.65
2019-04-11T00:15:44.488Z,72.23
2019-04-11T00:18:14.446Z,72.52
2019-04-11T00:20:44.378Z,73.12
2019-04-11T00:23:14.182Z,72.93
2019-04-11T00:25:45.002Z,72.81
2019-04-11T00:28:15.330Z,72.78
2019-04-11T00:30:45.638Z,72.77
2019-04-11T00:33:14.365Z,72.87
2019-04-11T00:35:43.942Z,72.77
2019-04-11T00:38:12.549Z,73.04
2019-04-11T00:40:44.200Z,72.98
2019-04-11T00:43:12.928Z,73.93
2019-04-11T00:45:41.483Z,73.72
2019-04-11T00:48:11.248Z,73.81
2019-04-11T00:50:40.374Z,73.73
2019-04-11T00:53:09.763Z,73.57
2019-04-11T00:55:40.060Z,73.68
2019-04-11T00:58:09.639Z,73.58
2019-04-11T01:00:39.516Z,74.03
2019-04-11T01:03:10.038Z,74.04
2019-04-11T01:05:39.420Z,73.48
2019-04-11T01:08:08.319Z,73.19
2019-04-11T01:10:39.350Z,73.06
2019-04-11T01:13:11.177Z,73.33
2019-04-11T01:15:45.172Z,73.08
2019-04-11T01:18:16.210Z,73.11
2019-04-11T01:20:45.935Z,72.80
2019-04-11T01:23:15.194Z,72.54
2019-04-11T01:25:48.551Z,72.93
2019-04-11T01:28:16.954Z,72.91
2019-04-11T01:30:54.141Z,73.06
2019-04-11T01:33:22.700Z,72.94
2019-04-11T01:35:51.648Z,73.61
2019-04-11T01:38:22.693Z,73.60
2019-04-11T01:40:52.703Z,73.86
2019-04-11T01:43:21.943Z,73.80
2019-04-11T01:45:51.771Z,73.54
2019-04-11T01:48:36.542Z,74.00
2019-04-11T01:51:05.395Z,74.02
2019-04-11T01:53:35.500Z,73.75
2019-04-11T01:56:05.094Z,74.62
2019-04-11T01:58:36.928Z,74.57
2019-04-11T02:01:23.159Z,74.59
2019-04-11T02:04:07.719Z,75.00
2019-04-11T02:06:40.895Z,74.86
2019-04-11T02:09:12.105Z,74.79
2019-04-11T02:11:41.543Z,74.71
2019-04-11T02:14:16.109Z,75.06
2019-04-11T02:16:43.284Z,74.77
2019-04-11T02:19:12.185Z,74.74
2019-04-11T02:21:42.034Z,74.92
2019-04-11T02:24:50.126Z,74.90
2019-04-11T02:27:21.191Z,75.23
2019-04-11T02:29:51.225Z,75.21
2019-04-11T02:32:22.918Z,75.37
2019-04-11T02:34:54.645Z,75.29
2019-04-11T02:37:26.264Z,75.10
2019-04-11T02:39:55.959Z,75.17
2019-04-11T02:42:27.502Z,75.23
2019-04-11T02:45:09.231Z,75.02
2019-04-11T02:47:30.950Z,75.31
2019-04-11T02:49:57.307Z,75.51
2019-04-11T02:52:27.755Z,75.37
2019-04-11T02:54:56.991Z,75.32
2019-04-11T02:57:29.986Z,75.67
2019-04-11T02:59:59.843Z,75.05
2019-04-11T03:02:30.895Z,75.09
2019-04-11T03:05:00.464Z,74.81
2019-04-11T03:07:31.988Z,75.06
2019-04-11T03:10:02.940Z,75.02
2019-04-11T03:12:32.256Z,75.20
2019-04-11T03:15:24.326Z,75.43
2019-04-11T03:17:43.118Z,75.29
2019-04-11T03:20:20.964Z,75.31
2019-04-11T03:22:40.568Z,75.30
2019-04-11T03:25:09.493Z,75.34
2019-04-11T03:27:40.892Z,75.49
2019-04-11T03:30:15.046Z,76.00
2019-04-11T03:36:00.089Z,75.80
2019-04-11T03:38:07.598Z,75.84
2019-04-11T03:40:32.146Z,75.49
2019-04-11T03:42:53.874Z,75.83
2019-04-11T03:45:32.877Z,75.78
2019-04-11T03:47:57.598Z,75.68
2019-04-11T03:50:16.990Z,75.42
2019-04-11T03:52:43.200Z,75.59
2019-04-11T03:55:13.194Z,75.75
2019-04-11T03:57:42.554Z,75.76
2019-04-11T04:00:14.759Z,75.95
2019-04-11T04:02:44.414Z,76.03
2019-04-11T04:05:15.128Z,76.50
2019-04-11T04:07:46.516Z,76.54
2019-04-11T04:10:17.934Z,76.76
2019-04-11T04:12:47.517Z,77.64
2019-04-11T04:15:40.090Z,77.65
2019-04-11T04:18:08.027Z,78.23
2019-04-11T04:21:01.871Z,78.39
2019-04-11T04:23:38.045Z,78.53
2019-04-11T04:26:08.454Z,78.44
2019-04-11T04:28:40.642Z,78.29
2019-04-11T04:31:09.762Z,78.31
2019-04-11T04:33:40.841Z,77.95
2019-04-11T04:36:10.895Z,78.42
2019-04-11T04:38:44.534Z,78.87
2019-04-11T04:41:28.174Z,78.94
2019-04-11T04:43:48.080Z,79.23
2019-04-11T04:46:34.723Z,78.93
2019-04-11T04:48:51.000Z,79.16
2019-04-11T04:51:20.578Z,79.33
2019-04-11T04:53:52.105Z,78.97
2019-04-11T04:56:24.929Z,78.78
2019-04-11T04:58:51.978Z,78.83
2019-04-11T05:01:21.741Z,78.90
2019-04-11T05:03:51.045Z,78.57
2019-04-11T05:06:20.668Z,78.33
2019-04-11T05:08:52.975Z,78.23
2019-04-11T05:11:23.131Z,77.71
2019-04-11T05:13:52.068Z,77.41
2019-04-11T05:16:20.813Z,77.49
2019-04-11T05:18:51.051Z,77.21
2019-04-11T05:21:21.319Z,77.50
2019-04-11T05:23:50.331Z,77.53
2019-04-11T05:26:21.972Z,77.28
2019-04-11T05:28:50.998Z,76.68
2019-04-11T05:31:20.628Z,76.59
2019-04-11T05:33:49.809Z,76.59
2019-04-11T05:36:20.645Z,76.77
2019-04-11T05:38:52.629Z,77.33
2019-04-11T05:41:23.037Z,77.03
2019-04-11T05:43:51.766Z,76.74
2019-04-11T05:46:31.067Z,76.41
2019-04-11T05:49:11.856Z,75.69
2019-04-11T05:51:44.632Z,75.65
2019-04-11T05:54:14.141Z,76.70
2019-04-11T05:56:43.788Z,76.92
2019-04-11T05:59:17.181Z,76.47
2019-04-11T06:01:51.086Z,76.46
2019-04-11T06:04:32.303Z,75.86
2019-04-11T06:07:08.435Z,75.69
2019-04-11T06:09:40.049Z,75.25
2019-04-11T06:12:35.900Z,74.44
2019-04-11T06:15:19.983Z,74.73
2019-04-11T06:17:50.450Z,74.49
2019-04-11T06:20:43.135Z,73.70
2019-04-11T06:23:39.134Z,73.94
2019-04-11T06:26:26.849Z,72.65
2019-04-11T06:29:01.291Z,72.12
2019-04-11T06:31:49.469Z,71.58
2019-04-11T06:34:18.338Z,71.44
2019-04-11T06:37:14.084Z,70.37
2019-04-11T06:40:04.103Z,70.11
2019-04-11T06:42:43.882Z,69.89
2019-04-11T06:45:39.744Z,69.45
2019-04-11T06:48:29.668Z,67.00
2019-04-11T06:51:08.032Z,66.56
2019-04-11T06:53:40.231Z,67.12
2019-04-11T06:56:25.364Z,67.03
2019-04-11T06:59:04.004Z,66.38
2019-04-11T07:01:32.695Z,65.50
2019-04-11T07:04:06.025Z,64.33
2019-04-11T07:06:39.949Z,63.31
2019-04-11T07:09:22.285Z,62.73
2019-04-11T07:11:55.213Z,60.76
2019-04-11T07:14:35.365Z,59.54
2019-04-11T07:17:24.766Z,58.68
2019-04-11T07:20:13.014Z,58.38
2019-04-11T07:23:01.599Z,58.27
2019-04-11T07:25:54.010Z,56.90
2019-04-11T07:28:29.400Z,57.47
2019-04-11T07:31:16.005Z,57.04
2019-04-11T07:34:03.756Z,57.52
2019-04-11T07:36:52.011Z,55.37
2019-04-11T07:39:51.614Z,55.69
2019-04-11T07:42:44.941Z,54.35
2019-04-11T07:45:20.988Z,55.14
2019-04-11T07:47:54.852Z,54.93
2019-04-11T07:50:24.907Z,52.93
2019-04-11T07:52:58.259Z,53.34
2019-04-11T07:55:27.945Z,52.68
2019-04-11T07:58:15.948Z,52.68
2019-04-11T08:01:12.560Z,54.13
2019-04-11T08:04:03.787Z,51.92
2019-04-11T08:06:54.083Z,52.27
2019-04-11T08:09:37.221Z,52.41
2019-04-11T08:12:10.264Z,53.18
2019-04-11T08:14:59.321Z,49.76
2019-04-11T08:17:37.707Z,49.53
2019-04-11T08:20:17.905Z,49.65
2019-04-11T08:22:57.158Z,47.65
2019-04-11T08:25:33.497Z,48.72
2019-04-11T08:28:07.957Z,50.47
2019-04-11T08:30:55.255Z,49.36
2019-04-11T08:33:28.921Z,49.47
2019-04-11T08:36:15.761Z,49.96
2019-04-11T08:38:44.843Z,48.61
2019-04-11T08:41:33.753Z,49.23
2019-04-11T08:44:13.766Z,49.23
2019-04-11T08:46:51.175Z,48.85
2019-04-11T08:49:32.201Z,49.52
2019-04-11T08:52:05.524Z,47.07
2019-04-11T08:54:51.800Z,47.67
2019-04-11T08:57:31.904Z,47.20
2019-04-11T09:00:10.701Z,46.98
2019-04-11T09:02:45.012Z,45.82
2019-04-11T09:05:27.112Z,45.79
2019-04-11T09:08:34.357Z,45.27
2019-04-11T09:11:22.646Z,43.44
2019-04-11T09:14:18.272Z,44.23
2019-04-11T09:16:56.233Z,46.48
2019-04-11T09:19:35.206Z,45.90
2019-04-11T09:22:25.783Z,46.47
2019-04-11T09:25:16.400Z,44.96
2019-04-11T09:28:04.967Z,45.31
2019-04-11T09:30:55.565Z,46.01
2019-04-11T09:33:45.398Z,45.29
2019-04-11T09:36:32.317Z,46.04
2019-04-11T09:39:06.841Z,45.57
2019-04-11T09:41:58.003Z,44.96
2019-04-11T09:44:29.335Z,44.94
2019-04-11T09:47:17.458Z,42.54
2019-04-11T09:49:53.705Z,42.77
2019-04-11T09:52:33.188Z,41.30
2019-04-11T09:55:17.263Z,41.32
2019-04-11T09:57:52.565Z,41.98
2019-04-11T10:00:43.094Z,39.87
2019-04-11T10:03:19.755Z,43.35
2019-04-11T10:06:07.248Z,43.35
2019-04-11T10:08:37.830Z,44.72
2019-04-11T10:11:50.683Z,46.73
2019-04-11T10:14:21.696Z,44.89
2019-04-11T10:17:10.676Z,44.31
2019-04-11T10:19:42.336Z,44.37
2019-04-11T10:22:45.980Z,44.38
2019-04-11T10:25:17.318Z,43.90
2019-04-11T10:28:06.089Z,43.99
2019-04-11T10:30:53.642Z,46.54
2019-04-11T10:33:47.187Z,42.82
2019-04-11T10:36:27.440Z,42.82
2019-04-11T10:39:19.915Z,45.80
2019-04-11T10:41:51.170Z,45.76
2019-04-11T10:44:25.773Z,45.78
2019-04-11T10:47:18.303Z,47.00
2019-04-11T10:50:05.473Z,47.75
2019-04-11T10:52:38.383Z,48.72
2019-04-11T10:55:11.823Z,46.57
2019-04-11T10:57:44.652Z,46.81
2019-04-11T11:00:20.908Z,46.63
2019-04-11T11:03:06.170Z,47.28
2019-04-11T11:05:38.374Z,45.32
2019-04-11T11:08:21.638Z,46.10
2019-04-11T11:10:52.152Z,46.10
2019-04-11T11:13:34.813Z,45.82
2019-04-11T11:16:05.815Z,43.53
2019-04-11T11:19:24.453Z,44.55
2019-04-11T11:21:33.287Z,43.09
2019-04-11T11:24:07.222Z,41.88
2019-04-11T11:26:39.050Z,41.88
2019-04-11T11:29:47.540Z,41.06
2019-04-11T11:32:23.466Z,46.13
2019-04-11T11:35:03.672Z,45.82
2019-04-11T11:37:37.667Z,45.13
2019-04-11T11:40:44.262Z,43.94
2019-04-11T11:43:25.257Z,43.58
2019-04-11T11:46:17.506Z,43.97
2019-04-11T11:49:05.948Z,43.97
2019-04-11T11:51:58.014Z,43.96
2019-04-11T11:54:29.437Z,42.36
2019-04-11T11:57:02.789Z,42.70
2019-04-11T11:59:44.952Z,42.42
2019-04-11T12:02:19.795Z,42.71
2019-04-11T12:05:18.307Z,42.20
2019-04-11T12:08:10.831Z,44.33
2019-04-11T12:10:45.876Z,45.50
2019-04-11T12:13:45.493Z,45.81
2019-04-11T12:16:21.933Z,44.13
2019-04-11T12:19:10.892Z,43.47
2019-04-11T12:21:40.974Z,42.42
2019-04-11T12:24:32.366Z,43.63
2019-04-11T12:27:18.616Z,46.26
2019-04-11T12:30:07.915Z,43.51
2019-04-11T12:32:40.937Z,43.78
2019-04-11T12:35:30.558Z,42.21
2019-04-11T12:38:25.824Z,41.56
2019-04-11T12:41:15.691Z,40.50
2019-04-11T12:44:18.258Z,41.13
2019-04-11T12:47:07.884Z,41.13
2019-04-11T12:49:52.828Z,43.65
2019-04-11T12:52:29.747Z,42.08
2019-04-11T12:54:59.066Z,42.08
2019-04-11T12:57:51.434Z,42.08
2019-04-11T13:00:29.061Z,42.20
2019-04-11T13:03:19.615Z,43.95
2019-04-11T13:05:50.627Z,43.82
2019-04-11T13:08:54.026Z,45.84
2019-04-11T13:11:25.008Z,43.68
2019-04-11T13:14:13.493Z,41.93
2019-04-11T13:16:45.613Z,43.70
2019-04-11T13:20:04.300Z,41.52
2019-04-11T13:22:25.759Z,41.81
2019-04-11T13:25:31.718Z,41.09
2019-04-11T13:28:00.436Z,42.34
2019-04-11T13:30:48.430Z,43.40
2019-04-11T13:33:22.786Z,43.59
2019-04-11T13:36:19.649Z,43.13
2019-04-11T13:38:52.413Z,43.67
2019-04-11T13:41:38.415Z,43.99
2019-04-11T13:44:18.911Z,41.31
2019-04-11T13:47:09.274Z,42.15
2019-04-11T13:49:46.761Z,42.41
2019-04-11T13:52:34.351Z,41.88
2019-04-11T13:55:29.171Z,41.76
2019-04-11T13:58:17.426Z,41.76
2019-04-11T14:01:13.249Z,43.77
2019-04-11T14:03:50.063Z,43.77
2019-04-11T14:06:36.051Z,44.28
2019-04-11T14:09:30.535Z,44.28
2019-04-11T14:12:04.738Z,43.61
2019-04-11T14:14:36.416Z,43.84
2019-04-11T14:17:21.945Z,45.12
2019-04-11T14:20:11.587Z,43.89
2019-04-11T14:23:14.918Z,43.82
2019-04-11T14:25:55.679Z,43.65
2019-04-11T14:28:25.296Z,43.19
2019-04-11T14:31:08.171Z,43.82
2019-04-11T14:33:40.544Z,42.39
2019-04-11T14:36:33.502Z,40.86
2019-04-11T14:39:09.102Z,42.36
2019-04-11T14:41:59.849Z,43.80
2019-04-11T14:44:29.051Z,44.41
2019-04-11T14:47:16.624Z,45.00
2019-04-11T14:49:50.910Z,42.20
2019-04-11T14:52:33.504Z,44.45
2019-04-11T14:55:04.349Z,44.45
2019-04-11T14:57:48.358Z,43.51
2019-04-11T15:00:28.059Z,46.35
2019-04-11T15:03:35.369Z,45.32
2019-04-11T15:06:24.197Z,45.20
2019-04-11T15:09:11.884Z,45.88
2019-04-11T15:12:17.589Z,45.01
2019-04-11T15:15:14.376Z,46.29
2019-04-11T15:17:42.987Z,46.10
2019-04-11T15:20:23.770Z,46.61
2019-04-11T15:22:59.917Z,46.45
2019-04-11T15:25:45.228Z,47.56
2019-04-11T15:28:23.859Z,45.23
2019-04-11T15:30:57.095Z,45.84
2019-04-11T15:33:43.481Z,43.84
2019-04-11T15:36:13.659Z,44.66
2019-04-11T15:38:55.937Z,44.63
2019-04-11T15:41:26.391Z,45.33
2019-04-11T15:44:14.549Z,44.31
2019-04-11T15:46:47.570Z,44.17
2019-04-11T15:49:52.838Z,44.61
2019-04-11T15:52:23.078Z,44.73
2019-04-11T15:55:09.657Z,45.75
2019-04-11T15:57:46.454Z,45.04
2019-04-11T16:00:49.877Z,46.09
2019-04-11T16:03:24.714Z,45.98
2019-04-11T16:06:11.267Z,46.09
2019-04-11T16:08:44.000Z,45.58
2019-04-11T16:11:43.977Z,45.92
2019-04-11T16:14:31.581Z,46.49
2019-04-11T16:17:38.874Z,45.79
2019-04-11T16:20:11.290Z,45.78
2019-04-11T16:23:15.083Z,47.52
2019-04-11T16:25:51.921Z,47.09
2019-04-11T16:29:00.068Z,46.59
2019-04-11T16:31:37.836Z,47.47
2019-04-11T16:34:28.156Z,47.58
2019-04-11T16:36:59.445Z,47.77
2019-04-11T16:39:54.798Z,48.29
2019-04-11T16:42:28.165Z,47.67
2019-04-11T16:45:09.415Z,48.94
2019-04-11T16:47:57.019Z,49.44
2019-04-11T16:50:28.374Z,47.96
2019-04-11T16:52:56.966Z,47.85
2019-04-11T16:55:25.542Z,48.54
2019-04-11T16:57:54.130Z,48.72
2019-04-11T17:00:24.064Z,49.16
2019-04-11T17:02:55.040Z,49.19
2019-04-11T17:05:24.071Z,47.88
2019-04-11T17:08:12.724Z,47.98
2019-04-11T17:11:21.671Z,49.33
2019-04-11T17:13:50.139Z,48.92
2019-04-11T17:16:22.696Z,49.43
2019-04-11T17:18:51.269Z,47.56
2019-04-11T17:21:19.828Z,48.48
2019-04-11T17:23:48.566Z,46.83
2019-04-11T17:26:17.091Z,48.52
2019-04-11T17:28:46.063Z,47.54
2019-04-11T17:31:16.604Z,48.41
2019-04-11T17:33:45.244Z,47.12
2019-04-11T17:36:14.366Z,47.93
2019-04-11T17:38:43.109Z,47.95
2019-04-11T17:41:12.116Z,49.07
2019-04-11T17:43:42.193Z,48.44
2019-04-11T17:46:11.037Z,48.56
2019-04-11T17:48:43.701Z,49.51
2019-04-11T17:51:13.809Z,50.34
2019-04-11T17:53:43.067Z,48.50
2019-04-11T17:56:11.645Z,49.09
2019-04-11T17:58:40.251Z,50.40
2019-04-11T18:01:08.793Z,49.08
2019-04-11T18:03:37.545Z,46.86
2019-04-11T18:06:06.491Z,48.50
2019-04-11T18:08:37.490Z,47.45
2019-04-11T18:11:06.045Z,48.50
2019-04-11T18:13:34.649Z,47.72
2019-04-11T18:16:04.760Z,48.27
2019-04-11T18:18:35.240Z,48.31
2019-04-11T18:21:07.334Z,47.32
2019-04-11T18:23:36.012Z,47.97
2019-04-11T18:26:05.715Z,47.23
2019-04-11T18:28:34.307Z,48.06
2019-04-11T18:31:02.906Z,47.33
2019-04-11T18:33:33.606Z,46.54
2019-04-11T18:36:02.933Z,48.35
2019-04-11T18:38:34.675Z,48.87
2019-04-11T18:41:03.389Z,46.33
2019-04-11T18:43:31.975Z,46.67
2019-04-11T18:46:00.641Z,46.74
2019-04-11T18:48:29.265Z,47.38
2019-04-11T18:50:58.266Z,47.18
2019-04-11T18:53:26.843Z,48.51
2019-04-11T18:55:55.475Z,46.88
2019-04-11T18:58:24.380Z,47.14
2019-04-11T19:00:52.963Z,47.17
2019-04-11T19:03:21.775Z,46.97
2019-04-11T19:05:50.262Z,47.80
2019-04-11T19:08:18.872Z,47.13
2019-04-11T19:10:49.097Z,47.01
2019-04-11T19:13:17.844Z,48.34
2019-04-11T19:15:46.491Z,48.20
2019-04-11T19:18:17.196Z,47.43
2019-04-11T19:20:49.951Z,48.91
2019-04-11T19:23:16.127Z,48.86
2019-04-11T19:25:46.883Z,48.49
2019-04-11T19:28:15.810Z,47.86
2019-04-11T19:30:45.232Z,47.38
2019-04-11T19:33:15.701Z,48.66
2019-04-11T19:35:44.268Z,48.60
2019-04-11T19:38:25.691Z,49.07
2019-04-11T19:40:55.602Z,49.71
2019-04-11T19:43:25.964Z,49.70
2019-04-11T19:45:58.832Z,51.15
2019-04-11T19:48:27.693Z,50.01
2019-04-11T19:50:58.610Z,50.37
2019-04-11T19:53:32.786Z,50.21
2019-04-11T19:56:23.930Z,48.45
2019-04-11T19:58:52.681Z,49.86
2019-04-11T20:01:23.523Z,50.22
2019-04-11T20:03:54.122Z,50.04
2019-04-11T20:06:23.959Z,50.37
2019-04-11T20:08:52.701Z,49.98
2019-04-11T20:11:21.254Z,49.67
2019-04-11T20:13:50.332Z,49.08
2019-04-11T20:16:21.095Z,49.52
2019-04-11T20:18:51.545Z,49.54
2019-04-11T20:21:23.759Z,47.68
2019-04-11T20:23:52.724Z,49.03
2019-04-11T20:26:24.304Z,47.74
2019-04-11T20:28:52.862Z,47.03
2019-04-11T20:31:21.779Z,48.11
2019-04-11T20:33:50.506Z,47.78
2019-04-11T20:36:32.593Z,47.62
2019-04-11T20:38:51.262Z,48.98
2019-04-11T20:41:22.940Z,49.77
2019-04-11T20:43:55.899Z,50.02
2019-04-11T20:46:21.928Z,49.45
2019-04-11T20:48:50.549Z,49.91
2019-04-11T20:51:21.093Z,49.76
2019-04-11T20:53:49.663Z,49.20
2019-04-11T20:56:24.264Z,49.63
2019-04-11T20:58:50.083Z,49.23
2019-04-11T21:01:18.831Z,48.68
2019-04-11T21:03:48.955Z,49.16
2019-04-11T21:06:17.910Z,48.39
2019-04-11T21:08:46.475Z,50.91
2019-04-11T21:11:18.730Z,51.73
2019-04-11T21:13:47.451Z,50.61
2019-04-11T21:16:16.045Z,50.77
2019-04-11T21:18:46.175Z,50.94
2019-04-11T21:21:15.081Z,51.70
2019-04-11T21:23:48.055Z,51.36
2019-04-11T21:26:18.315Z,51.50
2019-04-11T21:28:47.163Z,52.31
2019-04-11T21:31:17.088Z,52.20
2019-04-11T21:33:45.954Z,52.37
2019-04-11T21:36:14.542Z,52.52
2019-04-11T21:38:43.408Z,52.08
2019-04-11T21:41:14.163Z,52.00
2019-04-11T21:43:43.062Z,52.90
2019-04-11T21:46:11.951Z,51.49
2019-04-11T21:48:42.057Z,52.43
2019-04-11T21:51:11.938Z,52.81
2019-04-11T21:53:44.226Z,54.07
2019-04-11T21:56:10.928Z,53.18
2019-04-11T21:58:39.885Z,55.02
2019-04-11T22:01:11.265Z,53.73
2019-04-11T22:03:39.804Z,54.27
2019-04-11T22:06:08.721Z,53.24
2019-04-11T22:08:37.271Z,53.25
2019-04-11T22:11:09.900Z,53.02
2019-04-11T22:13:37.929Z,53.37
2019-04-11T22:16:06.924Z,54.50
2019-04-11T22:18:37.568Z,54.60
2019-04-11T22:21:06.482Z,54.17
2019-04-11T22:23:35.133Z,53.86
2019-04-11T22:26:03.722Z,54.00
2019-04-11T22:28:32.255Z,55.04
2019-04-11T22:31:00.845Z,55.80
2019-04-11T22:33:46.054Z,55.88
2019-04-11T22:36:14.800Z,55.70
2019-04-11T22:38:43.625Z,55.53
2019-04-11T22:41:12.584Z,56.46
2019-04-11T22:43:42.798Z,56.94
2019-04-11T22:46:20.251Z,57.59
2019-04-11T22:48:41.645Z,57.74
2019-04-11T22:51:11.278Z,57.96
2019-04-11T22:53:40.764Z,58.51
2019-04-11T22:56:12.986Z,57.93
2019-04-11T22:58:43.451Z,58.00
2019-04-11T23:01:13.976Z,58.82
2019-04-11T23:03:55.105Z,58.90
2019-04-11T23:06:24.019Z,60.03
2019-04-11T23:08:52.597Z,59.02
2019-04-11T23:11:21.165Z,59.85
2019-04-11T23:13:51.095Z,59.27
2019-04-11T23:16:19.686Z,60.93
2019-04-11T23:18:49.821Z,59.71
2019-04-11T23:21:20.063Z,59.73
2019-04-11T23:23:48.995Z,60.52
2019-04-11T23:26:17.564Z,59.55
2019-04-11T23:28:46.950Z,59.51
2019-04-11T23:31:19.758Z,59.62
2019-04-11T23:33:46.906Z,60.54
2019-04-11T23:36:15.652Z,60.87
2019-04-11T23:38:44.192Z,60.63
2019-04-11T23:41:13.087Z,59.83
2019-04-11T23:43:42.117Z,59.65
2019-04-11T23:46:12.349Z,60.45
2019-04-11T23:48:42.455Z,60.32
2019-04-11T23:51:12.383Z,60.59
2019-04-11T23:53:44.574Z,60.41
2019-04-11T23:56:13.160Z,59.64
2019-04-11T23:58:41.716Z,60.23
